sensor_id;sensor_type;location;lat;lon;timestamp;P1;durP1;ratioP1;P2;durP2;ratioP2
51985;SDS011;38002;53.296;6.600;2022-07-23T00:04:54;6.10;;;4.32;;
51985;SDS011;38002;53.296;6.600;2022-07-23T00:09:55;4.10;;;3.60;;
51985;SDS011;38002;53.296;6.600;2022-07-23T00:14:55;11.07;;;3.60;;
51985;SDS011;38002;53.296;6.600;2022-07-23T00:19:56;5.97;;;4.25;;
51985;SDS011;38002;53.296;6.600;2022-07-23T00:24:56;7.78;;;3.63;;
51985;SDS011;38002;53.296;6.600;2022-07-23T00:29:57;4.80;;;4.10;;
51985;SDS011;38002;53.296;6.600;2022-07-23T00:34:57;4.47;;;3.78;;
51985;SDS011;38002;53.296;6.600;2022-07-23T00:39:58;4.40;;;4.00;;
51985;SDS011;38002;53.296;6.600;2022-07-23T00:44:59;6.65;;;3.65;;
51985;SDS011;38002;53.296;6.600;2022-07-23T00:49:59;7.28;;;4.82;;
51985;SDS011;38002;53.296;6.600;2022-07-23T00:55:00;8.25;;;4.47;;
51985;SDS011;38002;53.296;6.600;2022-07-23T01:00:01;5.97;;;4.03;;
51985;SDS011;38002;53.296;6.600;2022-07-23T01:05:03;7.50;;;4.15;;
51985;SDS011;38002;53.296;6.600;2022-07-23T01:10:04;6.43;;;3.70;;
51985;SDS011;38002;53.296;6.600;2022-07-23T01:15:25;5.13;;;4.45;;
51985;SDS011;38002;53.296;6.600;2022-07-23T01:20:26;7.47;;;4.28;;
51985;SDS011;38002;53.296;6.600;2022-07-23T01:25:26;4.85;;;4.32;;
51985;SDS011;38002;53.296;6.600;2022-07-23T01:30:27;8.35;;;4.22;;
51985;SDS011;38002;53.296;6.600;2022-07-23T01:35:27;6.85;;;6.15;;
51985;SDS011;38002;53.296;6.600;2022-07-23T01:40:28;5.03;;;4.07;;
51985;SDS011;38002;53.296;6.600;2022-07-23T01:45:28;7.30;;;4.30;;
51985;SDS011;38002;53.296;6.600;2022-07-23T01:50:29;11.18;;;4.57;;
51985;SDS011;38002;53.296;6.600;2022-07-23T01:55:29;9.90;;;4.30;;
51985;SDS011;38002;53.296;6.600;2022-07-23T02:00:30;4.72;;;4.32;;
51985;SDS011;38002;53.296;6.600;2022-07-23T02:05:30;8.00;;;4.30;;
51985;SDS011;38002;53.296;6.600;2022-07-23T02:10:31;7.83;;;4.60;;
51985;SDS011;38002;53.296;6.600;2022-07-23T02:15:32;7.45;;;4.38;;
51985;SDS011;38002;53.296;6.600;2022-07-23T02:20:33;4.97;;;4.40;;
51985;SDS011;38002;53.296;6.600;2022-07-23T02:25:33;6.03;;;4.00;;
51985;SDS011;38002;53.296;6.600;2022-07-23T02:30:34;4.57;;;4.18;;
51985;SDS011;38002;53.296;6.600;2022-07-23T02:35:35;5.72;;;4.80;;
51985;SDS011;38002;53.296;6.600;2022-07-23T02:40:35;10.55;;;5.15;;
51985;SDS011;38002;53.296;6.600;2022-07-23T02:45:36;5.05;;;4.65;;
51985;SDS011;38002;53.296;6.600;2022-07-23T02:50:36;6.63;;;4.05;;
51985;SDS011;38002;53.296;6.600;2022-07-23T02:55:37;7.75;;;4.20;;
51985;SDS011;38002;53.296;6.600;2022-07-23T03:00:37;8.30;;;4.53;;
51985;SDS011;38002;53.296;6.600;2022-07-23T03:05:38;4.55;;;4.00;;
51985;SDS011;38002;53.296;6.600;2022-07-23T03:10:38;7.03;;;4.30;;
51985;SDS011;38002;53.296;6.600;2022-07-23T03:15:39;11.65;;;4.60;;
51985;SDS011;38002;53.296;6.600;2022-07-23T03:20:39;9.18;;;4.78;;
51985;SDS011;38002;53.296;6.600;2022-07-23T03:25:39;5.90;;;4.60;;
51985;SDS011;38002;53.296;6.600;2022-07-23T03:30:40;6.15;;;3.78;;
51985;SDS011;38002;53.296;6.600;2022-07-23T03:35:40;5.78;;;4.78;;
51985;SDS011;38002;53.296;6.600;2022-07-23T03:40:41;5.65;;;4.80;;
51985;SDS011;38002;53.296;6.600;2022-07-23T03:45:42;7.28;;;4.47;;
51985;SDS011;38002;53.296;6.600;2022-07-23T03:50:42;8.70;;;4.45;;
51985;SDS011;38002;53.296;6.600;2022-07-23T03:55:43;7.55;;;4.25;;
51985;SDS011;38002;53.296;6.600;2022-07-23T04:00:43;6.05;;;4.15;;
51985;SDS011;38002;53.296;6.600;2022-07-23T04:05:44;8.55;;;4.38;;
51985;SDS011;38002;53.296;6.600;2022-07-23T04:10:44;4.57;;;4.18;;
51985;SDS011;38002;53.296;6.600;2022-07-23T04:15:45;6.63;;;3.83;;
51985;SDS011;38002;53.296;6.600;2022-07-23T04:20:46;4.43;;;4.03;;
51985;SDS011;38002;53.296;6.600;2022-07-23T04:25:47;8.75;;;4.43;;
51985;SDS011;38002;53.296;6.600;2022-07-23T04:30:48;4.22;;;3.83;;
51985;SDS011;38002;53.296;6.600;2022-07-23T04:35:48;7.97;;;4.47;;
51985;SDS011;38002;53.296;6.600;2022-07-23T04:40:49;6.80;;;4.53;;
51985;SDS011;38002;53.296;6.600;2022-07-23T04:45:49;3.97;;;3.65;;
51985;SDS011;38002;53.296;6.600;2022-07-23T04:50:50;6.00;;;3.67;;
51985;SDS011;38002;53.296;6.600;2022-07-23T04:55:50;5.97;;;3.53;;
51985;SDS011;38002;53.296;6.600;2022-07-23T05:00:50;4.60;;;4.20;;
51985;SDS011;38002;53.296;6.600;2022-07-23T05:05:51;4.75;;;3.47;;
51985;SDS011;38002;53.296;6.600;2022-07-23T05:10:51;6.40;;;3.80;;
51985;SDS011;38002;53.296;6.600;2022-07-23T05:15:52;4.97;;;3.88;;
51985;SDS011;38002;53.296;6.600;2022-07-23T05:20:52;6.18;;;4.18;;
51985;SDS011;38002;53.296;6.600;2022-07-23T05:25:53;5.50;;;3.88;;
51985;SDS011;38002;53.296;6.600;2022-07-23T05:30:54;12.18;;;4.05;;
51985;SDS011;38002;53.296;6.600;2022-07-23T05:35:59;4.20;;;3.80;;
51985;SDS011;38002;53.296;6.600;2022-07-23T05:41:00;3.90;;;3.40;;
51985;SDS011;38002;53.296;6.600;2022-07-23T05:46:01;4.53;;;2.90;;
51985;SDS011;38002;53.296;6.600;2022-07-23T05:51:01;8.25;;;3.67;;
51985;SDS011;38002;53.296;6.600;2022-07-23T05:56:06;5.88;;;3.17;;
51985;SDS011;38002;53.296;6.600;2022-07-23T06:01:06;4.90;;;3.13;;
51985;SDS011;38002;53.296;6.600;2022-07-23T06:06:07;4.47;;;2.50;;
51985;SDS011;38002;53.296;6.600;2022-07-23T06:11:07;5.95;;;3.20;;
51985;SDS011;38002;53.296;6.600;2022-07-23T06:16:08;4.18;;;3.22;;
51985;SDS011;38002;53.296;6.600;2022-07-23T06:21:09;4.97;;;2.50;;
51985;SDS011;38002;53.296;6.600;2022-07-23T06:26:09;4.47;;;3.10;;
51985;SDS011;38002;53.296;6.600;2022-07-23T06:31:09;5.78;;;2.15;;
51985;SDS011;38002;53.296;6.600;2022-07-23T06:36:10;7.00;;;1.85;;
51985;SDS011;38002;53.296;6.600;2022-07-23T06:41:10;1.38;;;1.27;;
51985;SDS011;38002;53.296;6.600;2022-07-23T06:46:11;1.37;;;1.27;;
51985;SDS011;38002;53.296;6.600;2022-07-23T06:51:11;1.33;;;0.97;;
51985;SDS011;38002;53.296;6.600;2022-07-23T06:56:12;2.75;;;1.40;;
51985;SDS011;38002;53.296;6.600;2022-07-23T07:01:12;1.55;;;1.25;;
51985;SDS011;38002;53.296;6.600;2022-07-23T07:06:14;3.45;;;1.20;;
51985;SDS011;38002;53.296;6.600;2022-07-23T07:11:15;3.05;;;1.45;;
51985;SDS011;38002;53.296;6.600;2022-07-23T07:16:15;1.43;;;1.33;;
51985;SDS011;38002;53.296;6.600;2022-07-23T07:21:16;3.00;;;1.47;;
51985;SDS011;38002;53.296;6.600;2022-07-23T07:26:16;0.90;;;0.90;;
51985;SDS011;38002;53.296;6.600;2022-07-23T07:31:17;1.70;;;1.60;;
51985;SDS011;38002;53.296;6.600;2022-07-23T07:36:17;1.00;;;0.90;;
51985;SDS011;38002;53.296;6.600;2022-07-23T07:41:18;1.07;;;0.40;;
51985;SDS011;38002;53.296;6.600;2022-07-23T07:46:22;0.50;;;0.50;;
51985;SDS011;38002;53.296;6.600;2022-07-23T07:51:24;1.70;;;0.98;;
51985;SDS011;38002;53.296;6.600;2022-07-23T07:56:24;2.10;;;0.60;;
51985;SDS011;38002;53.296;6.600;2022-07-23T08:01:25;0.40;;;0.40;;
51985;SDS011;38002;53.296;6.600;2022-07-23T08:06:25;0.40;;;0.40;;
51985;SDS011;38002;53.296;6.600;2022-07-23T08:11:26;0.40;;;0.40;;
51985;SDS011;38002;53.296;6.600;2022-07-23T08:16:27;0.30;;;0.30;;
51985;SDS011;38002;53.296;6.600;2022-07-23T08:21:27;1.33;;;0.60;;
51985;SDS011;38002;53.296;6.600;2022-07-23T08:26:28;2.23;;;0.50;;
51985;SDS011;38002;53.296;6.600;2022-07-23T08:31:28;1.93;;;0.43;;
51985;SDS011;38002;53.296;6.600;2022-07-23T08:36:29;1.17;;;0.40;;
51985;SDS011;38002;53.296;6.600;2022-07-23T08:41:32;2.05;;;0.60;;
51985;SDS011;38002;53.296;6.600;2022-07-23T08:46:34;1.70;;;0.55;;
51985;SDS011;38002;53.296;6.600;2022-07-23T08:51:36;2.90;;;0.50;;
51985;SDS011;38002;53.296;6.600;2022-07-23T08:56:37;1.17;;;0.50;;
51985;SDS011;38002;53.296;6.600;2022-07-23T09:01:37;2.27;;;0.50;;
51985;SDS011;38002;53.296;6.600;2022-07-23T09:06:41;0.40;;;0.30;;
51985;SDS011;38002;53.296;6.600;2022-07-23T09:11:45;1.95;;;0.60;;
51985;SDS011;38002;53.296;6.600;2022-07-23T09:16:46;1.20;;;0.70;;
51985;SDS011;38002;53.296;6.600;2022-07-23T09:21:47;2.67;;;0.50;;
51985;SDS011;38002;53.296;6.600;2022-07-23T09:26:47;1.43;;;0.43;;
51985;SDS011;38002;53.296;6.600;2022-07-23T09:31:56;3.33;;;0.55;;
51985;SDS011;38002;53.296;6.600;2022-07-23T09:37:09;2.60;;;0.60;;
51985;SDS011;38002;53.296;6.600;2022-07-23T09:42:13;1.27;;;0.52;;
51985;SDS011;38002;53.296;6.600;2022-07-23T09:47:30;0.40;;;0.32;;
51985;SDS011;38002;53.296;6.600;2022-07-23T09:52:32;1.65;;;0.50;;
51985;SDS011;38002;53.296;6.600;2022-07-23T09:57:34;1.40;;;0.70;;
51985;SDS011;38002;53.296;6.600;2022-07-23T10:02:35;1.07;;;0.50;;
51985;SDS011;38002;53.296;6.600;2022-07-23T10:07:39;2.25;;;0.57;;
51985;SDS011;38002;53.296;6.600;2022-07-23T10:12:41;2.90;;;0.63;;
51985;SDS011;38002;53.296;6.600;2022-07-23T10:17:59;0.88;;;0.85;;
51985;SDS011;38002;53.296;6.600;2022-07-23T10:23:02;2.97;;;0.70;;
51985;SDS011;38002;53.296;6.600;2022-07-23T10:39:08;1.38;;;0.60;;
51985;SDS011;38002;53.296;6.600;2022-07-23T10:44:18;4.25;;;1.33;;
51985;SDS011;38002;53.296;6.600;2022-07-23T10:49:29;1.65;;;0.80;;
51985;SDS011;38002;53.296;6.600;2022-07-23T10:54:33;5.45;;;0.70;;
51985;SDS011;38002;53.296;6.600;2022-07-23T11:00:35;4.57;;;1.10;;
51985;SDS011;38002;53.296;6.600;2022-07-23T11:17:21;3.28;;;0.85;;
51985;SDS011;38002;53.296;6.600;2022-07-23T11:27:44;1.77;;;0.60;;
51985;SDS011;38002;53.296;6.600;2022-07-23T11:32:46;0.50;;;0.50;;
51985;SDS011;38002;53.296;6.600;2022-07-23T11:37:46;1.90;;;0.70;;
51985;SDS011;38002;53.296;6.600;2022-07-23T11:42:51;1.35;;;1.02;;
51985;SDS011;38002;53.296;6.600;2022-07-23T11:58:23;5.50;;;1.10;;
51985;SDS011;38002;53.296;6.600;2022-07-23T12:03:23;1.27;;;0.80;;
51985;SDS011;38002;53.296;6.600;2022-07-23T12:08:24;0.97;;;0.73;;
51985;SDS011;38002;53.296;6.600;2022-07-23T12:13:24;1.73;;;0.90;;
51985;SDS011;38002;53.296;6.600;2022-07-23T12:18:25;1.20;;;0.70;;
51985;SDS011;38002;53.296;6.600;2022-07-23T12:23:27;1.13;;;0.60;;
51985;SDS011;38002;53.296;6.600;2022-07-23T12:28:28;1.07;;;0.80;;
51985;SDS011;38002;53.296;6.600;2022-07-23T12:38:41;1.50;;;0.90;;
51985;SDS011;38002;53.296;6.600;2022-07-23T12:43:51;2.70;;;0.98;;
51985;SDS011;38002;53.296;6.600;2022-07-23T12:48:52;2.27;;;0.97;;
51985;SDS011;38002;53.296;6.600;2022-07-23T12:53:54;1.98;;;0.73;;
51985;SDS011;38002;53.296;6.600;2022-07-23T13:04:13;0.70;;;0.70;;
51985;SDS011;38002;53.296;6.600;2022-07-23T13:09:17;2.35;;;0.88;;
51985;SDS011;38002;53.296;6.600;2022-07-23T13:14:19;2.63;;;1.00;;
51985;SDS011;38002;53.296;6.600;2022-07-23T13:19:20;0.85;;;0.80;;
51985;SDS011;38002;53.296;6.600;2022-07-23T13:24:24;3.25;;;0.80;;
51985;SDS011;38002;53.296;6.600;2022-07-23T13:29:24;1.23;;;0.90;;
51985;SDS011;38002;53.296;6.600;2022-07-23T13:34:24;4.03;;;0.83;;
51985;SDS011;38002;53.296;6.600;2022-07-23T13:39:25;1.20;;;0.73;;
51985;SDS011;38002;53.296;6.600;2022-07-23T13:44:25;5.97;;;0.80;;
51985;SDS011;38002;53.296;6.600;2022-07-23T13:49:26;4.80;;;0.90;;
51985;SDS011;38002;53.296;6.600;2022-07-23T13:54:26;3.70;;;0.83;;
51985;SDS011;38002;53.296;6.600;2022-07-23T13:59:27;1.40;;;0.83;;
51985;SDS011;38002;53.296;6.600;2022-07-23T14:04:27;1.70;;;0.73;;
51985;SDS011;38002;53.296;6.600;2022-07-23T14:09:28;3.80;;;1.05;;
51985;SDS011;38002;53.296;6.600;2022-07-23T14:14:30;6.63;;;0.90;;
51985;SDS011;38002;53.296;6.600;2022-07-23T14:19:30;0.67;;;0.67;;
51985;SDS011;38002;53.296;6.600;2022-07-23T14:24:31;0.70;;;0.70;;
51985;SDS011;38002;53.296;6.600;2022-07-23T14:29:31;1.27;;;0.90;;
51985;SDS011;38002;53.296;6.600;2022-07-23T14:39:33;0.70;;;0.70;;
51985;SDS011;38002;53.296;6.600;2022-07-23T14:44:34;3.47;;;0.75;;
51985;SDS011;38002;53.296;6.600;2022-07-23T14:49:36;1.85;;;0.98;;
51985;SDS011;38002;53.296;6.600;2022-07-23T14:54:36;2.43;;;1.00;;
51985;SDS011;38002;53.296;6.600;2022-07-23T14:59:37;0.90;;;0.90;;
51985;SDS011;38002;53.296;6.600;2022-07-23T15:04:37;1.50;;;0.80;;
51985;SDS011;38002;53.296;6.600;2022-07-23T15:09:37;1.50;;;0.97;;
51985;SDS011;38002;53.296;6.600;2022-07-23T15:14:38;2.70;;;1.23;;
51985;SDS011;38002;53.296;6.600;2022-07-23T15:19:38;1.47;;;1.10;;
51985;SDS011;38002;53.296;6.600;2022-07-23T15:24:39;2.03;;;1.15;;
51985;SDS011;38002;53.296;6.600;2022-07-23T15:29:39;1.33;;;1.10;;
51985;SDS011;38002;53.296;6.600;2022-07-23T15:34:40;1.33;;;0.80;;
51985;SDS011;38002;53.296;6.600;2022-07-23T15:39:40;1.40;;;1.30;;
51985;SDS011;38002;53.296;6.600;2022-07-23T15:44:41;2.37;;;0.87;;
51985;SDS011;38002;53.296;6.600;2022-07-23T15:49:43;2.67;;;1.00;;
51985;SDS011;38002;53.296;6.600;2022-07-23T15:54:44;1.63;;;0.68;;
51985;SDS011;38002;53.296;6.600;2022-07-23T15:59:45;1.37;;;0.90;;
51985;SDS011;38002;53.296;6.600;2022-07-23T16:04:45;2.23;;;0.80;;
51985;SDS011;38002;53.296;6.600;2022-07-23T16:09:46;4.77;;;1.20;;
51985;SDS011;38002;53.296;6.600;2022-07-23T16:14:46;5.05;;;1.05;;
51985;SDS011;38002;53.296;6.600;2022-07-23T16:19:47;2.30;;;0.77;;
51985;SDS011;38002;53.296;6.600;2022-07-23T16:24:47;2.87;;;1.20;;
51985;SDS011;38002;53.296;6.600;2022-07-23T16:29:48;0.60;;;0.60;;
51985;SDS011;38002;53.296;6.600;2022-07-23T16:34:49;3.07;;;0.80;;
51985;SDS011;38002;53.296;6.600;2022-07-23T16:39:49;5.53;;;1.40;;
51985;SDS011;38002;53.296;6.600;2022-07-23T16:44:50;2.37;;;1.00;;
51985;SDS011;38002;53.296;6.600;2022-07-23T16:49:51;0.80;;;0.80;;
51985;SDS011;38002;53.296;6.600;2022-07-23T16:54:51;2.07;;;1.00;;
51985;SDS011;38002;53.296;6.600;2022-07-23T16:59:51;3.17;;;1.13;;
51985;SDS011;38002;53.296;6.600;2022-07-23T17:04:52;0.77;;;0.77;;
51985;SDS011;38002;53.296;6.600;2022-07-23T17:09:53;4.40;;;1.00;;
51985;SDS011;38002;53.296;6.600;2022-07-23T17:14:53;0.80;;;0.80;;
51985;SDS011;38002;53.296;6.600;2022-07-23T17:19:54;0.80;;;0.80;;
51985;SDS011;38002;53.296;6.600;2022-07-23T17:24:54;1.00;;;0.90;;
51985;SDS011;38002;53.296;6.600;2022-07-23T17:29:54;1.97;;;0.87;;
51985;SDS011;38002;53.296;6.600;2022-07-23T17:34:55;1.00;;;0.97;;
51985;SDS011;38002;53.296;6.600;2022-07-23T17:39:55;3.13;;;0.80;;
51985;SDS011;38002;53.296;6.600;2022-07-23T17:44:56;1.83;;;1.13;;
51985;SDS011;38002;53.296;6.600;2022-07-23T17:49:56;1.10;;;0.90;;
51985;SDS011;38002;53.296;6.600;2022-07-23T17:54:57;3.87;;;0.90;;
51985;SDS011;38002;53.296;6.600;2022-07-23T17:59:57;3.97;;;0.93;;
51985;SDS011;38002;53.296;6.600;2022-07-23T18:04:58;2.10;;;1.20;;
51985;SDS011;38002;53.296;6.600;2022-07-23T18:09:58;1.07;;;1.07;;
51985;SDS011;38002;53.296;6.600;2022-07-23T18:14:59;3.20;;;0.80;;
51985;SDS011;38002;53.296;6.600;2022-07-23T18:19:59;0.90;;;0.83;;
51985;SDS011;38002;53.296;6.600;2022-07-23T18:25:00;1.60;;;1.20;;
51985;SDS011;38002;53.296;6.600;2022-07-23T18:30:01;0.67;;;0.67;;
51985;SDS011;38002;53.296;6.600;2022-07-23T18:35:02;1.87;;;0.83;;
51985;SDS011;38002;53.296;6.600;2022-07-23T18:40:04;1.85;;;1.10;;
51985;SDS011;38002;53.296;6.600;2022-07-23T18:45:08;0.88;;;0.80;;
51985;SDS011;38002;53.296;6.600;2022-07-23T18:50:11;2.65;;;0.70;;
51985;SDS011;38002;53.296;6.600;2022-07-23T18:55:12;1.23;;;0.95;;
51985;SDS011;38002;53.296;6.600;2022-07-23T19:00:13;2.57;;;1.00;;
51985;SDS011;38002;53.296;6.600;2022-07-23T19:05:14;2.33;;;1.10;;
51985;SDS011;38002;53.296;6.600;2022-07-23T19:10:14;1.77;;;1.10;;
51985;SDS011;38002;53.296;6.600;2022-07-23T19:15:15;1.00;;;1.00;;
51985;SDS011;38002;53.296;6.600;2022-07-23T19:20:16;2.50;;;1.33;;
51985;SDS011;38002;53.296;6.600;2022-07-23T19:25:16;1.93;;;1.30;;
51985;SDS011;38002;53.296;6.600;2022-07-23T19:30:17;1.87;;;1.50;;
51985;SDS011;38002;53.296;6.600;2022-07-23T19:35:18;2.17;;;1.27;;
51985;SDS011;38002;53.296;6.600;2022-07-23T19:40:18;2.10;;;1.27;;
51985;SDS011;38002;53.296;6.600;2022-07-23T19:45:19;2.53;;;1.50;;
51985;SDS011;38002;53.296;6.600;2022-07-23T19:50:20;2.42;;;1.55;;
51985;SDS011;38002;53.296;6.600;2022-07-23T19:55:21;2.10;;;1.90;;
51985;SDS011;38002;53.296;6.600;2022-07-23T20:00:22;3.63;;;2.33;;
51985;SDS011;38002;53.296;6.600;2022-07-23T20:05:23;2.08;;;1.63;;
51985;SDS011;38002;53.296;6.600;2022-07-23T20:10:24;4.60;;;1.97;;
51985;SDS011;38002;53.296;6.600;2022-07-23T20:15:25;2.50;;;2.00;;
51985;SDS011;38002;53.296;6.600;2022-07-23T20:20:28;3.20;;;2.40;;
51985;SDS011;38002;53.296;6.600;2022-07-23T20:25:29;3.80;;;2.17;;
51985;SDS011;38002;53.296;6.600;2022-07-23T20:30:29;2.90;;;2.70;;
51985;SDS011;38002;53.296;6.600;2022-07-23T20:35:30;4.37;;;3.53;;
51985;SDS011;38002;53.296;6.600;2022-07-23T20:40:30;6.40;;;3.90;;
51985;SDS011;38002;53.296;6.600;2022-07-23T20:45:31;5.30;;;3.77;;
51985;SDS011;38002;53.296;6.600;2022-07-23T20:50:31;8.03;;;4.00;;
51985;SDS011;38002;53.296;6.600;2022-07-23T20:55:32;6.37;;;4.10;;
51985;SDS011;38002;53.296;6.600;2022-07-23T21:00:33;8.17;;;4.43;;
51985;SDS011;38002;53.296;6.600;2022-07-23T21:05:34;6.73;;;4.70;;
51985;SDS011;38002;53.296;6.600;2022-07-23T21:10:34;5.63;;;4.73;;
51985;SDS011;38002;53.296;6.600;2022-07-23T21:15:35;7.27;;;5.13;;
51985;SDS011;38002;53.296;6.600;2022-07-23T21:20:35;4.93;;;4.43;;
51985;SDS011;38002;53.296;6.600;2022-07-23T21:25:54;4.40;;;3.97;;
51985;SDS011;38002;53.296;6.600;2022-07-23T21:30:55;4.57;;;4.17;;
51985;SDS011;38002;53.296;6.600;2022-07-23T21:35:55;4.27;;;3.87;;
51985;SDS011;38002;53.296;6.600;2022-07-23T21:40:56;5.50;;;3.70;;
51985;SDS011;38002;53.296;6.600;2022-07-23T21:45:57;4.78;;;3.72;;
51985;SDS011;38002;53.296;6.600;2022-07-23T21:50:57;5.35;;;3.63;;
51985;SDS011;38002;53.296;6.600;2022-07-23T21:55:58;3.80;;;3.37;;
51985;SDS011;38002;53.296;6.600;2022-07-23T22:00:58;5.87;;;3.70;;
51985;SDS011;38002;53.296;6.600;2022-07-23T22:05:59;4.93;;;3.67;;
51985;SDS011;38002;53.296;6.600;2022-07-23T22:10:59;5.85;;;3.80;;
51985;SDS011;38002;53.296;6.600;2022-07-23T22:16:00;3.42;;;3.20;;
51985;SDS011;38002;53.296;6.600;2022-07-23T22:21:00;3.87;;;3.50;;
51985;SDS011;38002;53.296;6.600;2022-07-23T22:26:01;5.18;;;3.25;;
51985;SDS011;38002;53.296;6.600;2022-07-23T22:31:01;3.50;;;2.83;;
51985;SDS011;38002;53.296;6.600;2022-07-23T22:36:02;2.97;;;2.78;;
51985;SDS011;38002;53.296;6.600;2022-07-23T22:41:03;3.65;;;3.35;;
51985;SDS011;38002;53.296;6.600;2022-07-23T22:46:03;3.92;;;3.05;;
51985;SDS011;38002;53.296;6.600;2022-07-23T22:51:04;3.78;;;3.38;;
51985;SDS011;38002;53.296;6.600;2022-07-23T22:56:04;3.53;;;3.23;;
51985;SDS011;38002;53.296;6.600;2022-07-23T23:01:05;3.50;;;3.20;;
51985;SDS011;38002;53.296;6.600;2022-07-23T23:06:06;3.75;;;3.45;;
51985;SDS011;38002;53.296;6.600;2022-07-23T23:11:06;3.67;;;3.38;;
51985;SDS011;38002;53.296;6.600;2022-07-23T23:16:07;4.30;;;3.83;;
51985;SDS011;38002;53.296;6.600;2022-07-23T23:21:07;3.47;;;3.20;;
51985;SDS011;38002;53.296;6.600;2022-07-23T23:26:08;6.50;;;3.10;;
51985;SDS011;38002;53.296;6.600;2022-07-23T23:31:10;3.90;;;3.22;;
51985;SDS011;38002;53.296;6.600;2022-07-23T23:36:11;3.15;;;2.95;;
51985;SDS011;38002;53.296;6.600;2022-07-23T23:41:11;4.38;;;3.60;;
51985;SDS011;38002;53.296;6.600;2022-07-23T23:46:12;9.43;;;3.65;;
51985;SDS011;38002;53.296;6.600;2022-07-23T23:51:12;5.78;;;3.20;;
51985;SDS011;38002;53.296;6.600;2022-07-23T23:56:13;4.28;;;2.92;;
